»·PEaware :: N990CP S93-KSFF

N990CP :: S93-KSFF

FLIGHT INFORMATION

Flight Status: Arrived
Operator: Privately registered:
United States
More flights under this callsign
Pilot: Rui L. (16319)
Aircraft: CESSNA 172 SKYHAWK
(C172)
More flights by this aircraft type
Origin: S93 Cle Elum Mun
United States
Destination: KSFF Felts
United States
More flights between these airports :: More routes between these airports
Route: ELN 470555N1200158W MWH 43D 472543N1181744W GEG
File this flight plan on PilotEdge
Remarks:
Altitude:
(Current/Filed)
7,500ft
Speed:
(Current/Filed)
110kts
Departed: 10-Aug-18 01:41 PM
Arrived: 10-Aug-18 03:08 PM
Distance/Time
Traveled:
148nm/1:26
Distance/Time
To Go:
Arrived

Flight Plot

Page will automatically refresh every two minutes.

Flight plan parsing failed; only flown route is shown


Map Options




Map Legend


Flown Route
Filed Route
Departure Airport
Arrival Airport
Navaid (VOR, NDB)
Fix

Horizontal Profiles

Position Reports

Time Latitude Longitude Heading Altitude Ground
Speed
10-Aug-18 13:01 47.193117 -120.883711 354 1948ft 0kts
10-Aug-18 13:02 47.193117 -120.883711 354 1948ft 0kts
10-Aug-18 13:03 47.193117 -120.883711 354 1948ft 0kts
10-Aug-18 13:04 47.193117 -120.883711 354 1948ft 0kts
10-Aug-18 13:05 47.193117 -120.883711 354 1948ft 0kts
10-Aug-18 13:06 47.193117 -120.883711 354 1948ft 0kts
10-Aug-18 13:07 47.193117 -120.883711 354 1948ft 0kts
10-Aug-18 13:08 47.193117 -120.883711 354 1948ft 0kts
10-Aug-18 13:09 47.193117 -120.883711 354 1948ft 0kts
10-Aug-18 13:10 47.193117 -120.883711 354 1948ft 0kts
10-Aug-18 13:11 47.193117 -120.883711 354 1948ft 0kts
10-Aug-18 13:12 47.193117 -120.883711 354 1948ft 0kts
10-Aug-18 13:13 47.193117 -120.883711 354 1948ft 0kts
10-Aug-18 13:14 47.193117 -120.883711 354 1948ft 0kts
10-Aug-18 13:15 47.193117 -120.883711 354 1948ft 0kts
10-Aug-18 13:16 47.193117 -120.883711 354 1948ft 0kts
10-Aug-18 13:17 47.193117 -120.883711 354 1948ft 0kts
10-Aug-18 13:18 47.193118 -120.883711 354 1948ft 0kts
10-Aug-18 13:19 47.193122 -120.883712 354 1948ft 0kts
10-Aug-18 13:20 47.193126 -120.883712 354 1948ft 0kts
10-Aug-18 13:21 47.193130 -120.883713 354 1948ft 0kts
10-Aug-18 13:22 47.193134 -120.883714 354 1948ft 0kts
10-Aug-18 13:23 47.193138 -120.883714 354 1948ft 0kts
10-Aug-18 13:24 47.193142 -120.883715 354 1948ft 0kts
10-Aug-18 13:25 47.193166 -120.883718 353 1948ft 1kts
10-Aug-18 13:26 47.193812 -120.884528 0 1948ft 0kts
10-Aug-18 13:27 47.193816 -120.884528 0 1948ft 0kts
10-Aug-18 13:28 47.193821 -120.884528 0 1948ft 0kts
10-Aug-18 13:29 47.193827 -120.884528 0 1948ft 0kts
10-Aug-18 13:30 47.193172 -120.884679 27 1948ft 0kts
10-Aug-18 13:31 47.193174 -120.884678 27 1948ft 0kts
10-Aug-18 13:32 47.193174 -120.884678 27 1948ft 0kts
10-Aug-18 13:33 47.193174 -120.884678 27 1948ft 0kts
10-Aug-18 13:34 47.193174 -120.884678 27 1948ft 0kts
10-Aug-18 13:35 47.193174 -120.884677 27 1948ft 0kts
10-Aug-18 13:36 47.193178 -120.884674 27 1948ft 0kts
10-Aug-18 13:37 47.193541 -120.884517 356 1948ft 0kts
10-Aug-18 13:38 47.193791 -120.884532 357 1948ft 0kts
10-Aug-18 13:39 47.194170 -120.887005 267 1948ft 13kts
10-Aug-18 13:40 47.193794 -120.888718 331 1948ft 0kts
10-Aug-18 13:41 47.194132 -120.888545 85 1948ft 0kts
10-Aug-18 13:42 47.194323 -120.881957 88 1948ft 62kts
10-Aug-18 13:43 47.195133 -120.851556 87 2445ft 78kts
10-Aug-18 13:44 47.196269 -120.815934 89 3014ft 88kts
10-Aug-18 13:45 47.192638 -120.781587 128 3673ft 86kts
10-Aug-18 13:46 47.174662 -120.757942 140 4264ft 85kts
10-Aug-18 13:47 47.156177 -120.735521 140 5129ft 81kts
10-Aug-18 13:48 47.139701 -120.709491 132 5706ft 91kts
10-Aug-18 13:49 47.123066 -120.683871 139 6473ft 85kts
10-Aug-18 13:50 47.104428 -120.658759 141 7215ft 91kts
10-Aug-18 13:51 47.093163 -120.620237 120 7454ft 116kts
10-Aug-18 13:52 47.078177 -120.580148 122 7457ft 110kts
10-Aug-18 13:53 47.059656 -120.542946 132 7475ft 122kts
10-Aug-18 13:54 47.040999 -120.498996 116 7472ft 122kts
10-Aug-18 13:55 47.025149 -120.455648 118 7416ft 120kts
10-Aug-18 13:56 47.031421 -120.408795 81 7430ft 120kts
10-Aug-18 13:57 47.037950 -120.361603 81 7465ft 117kts
10-Aug-18 13:58 47.044950 -120.313344 74 7383ft 123kts
10-Aug-18 13:59 47.055886 -120.266481 82 7414ft 121kts
10-Aug-18 14:00 47.060881 -120.216316 83 7411ft 119kts
10-Aug-18 14:01 47.068693 -120.168823 72 7409ft 119kts
10-Aug-18 14:02 47.075453 -120.121064 87 7387ft 119kts
10-Aug-18 14:03 47.083318 -120.073997 71 7488ft 115kts
10-Aug-18 14:04 47.094136 -120.027553 68 7514ft 118kts
10-Aug-18 14:05 47.100686 -119.980732 92 7569ft 118kts
10-Aug-18 14:06 47.105111 -119.931183 78 7506ft 126kts
10-Aug-18 14:07 47.112481 -119.880502 72 7536ft 129kts
10-Aug-18 14:08 47.124435 -119.830055 74 7443ft 123kts
10-Aug-18 14:09 47.137482 -119.785394 67 7494ft 124kts
10-Aug-18 14:10 47.150890 -119.736904 72 7549ft 125kts
10-Aug-18 14:11 47.155247 -119.684839 91 7487ft 126kts
10-Aug-18 14:12 47.159688 -119.634619 86 7509ft 125kts
10-Aug-18 14:13 47.163521 -119.582767 80 7531ft 128kts
10-Aug-18 14:14 47.174188 -119.532700 74 7507ft 124kts
10-Aug-18 14:15 47.185864 -119.484421 77 7481ft 128kts
10-Aug-18 14:16 47.192229 -119.432795 78 7543ft 121kts
10-Aug-18 14:17 47.199627 -119.383948 79 7508ft 125kts
10-Aug-18 14:18 47.209442 -119.334891 79 7515ft 129kts
10-Aug-18 14:19 47.216102 -119.283196 80 7582ft 128kts
10-Aug-18 14:20 47.224535 -119.231582 80 7552ft 124kts
10-Aug-18 14:21 47.235854 -119.182685 67 7460ft 124kts
10-Aug-18 14:22 47.246394 -119.138700 88 7505ft 111kts
10-Aug-18 14:23 47.245678 -119.091726 79 7502ft 122kts
10-Aug-18 14:24 47.254970 -119.041724 72 7471ft 130kts
10-Aug-18 14:25 47.267980 -118.991987 75 7470ft 124kts
10-Aug-18 14:26 47.277127 -118.943860 79 7514ft 128kts
10-Aug-18 14:27 47.283595 -118.891926 81 7507ft 122kts
10-Aug-18 14:28 47.291624 -118.843803 76 7565ft 124kts
10-Aug-18 14:29 47.302369 -118.793380 72 7524ft 129kts
10-Aug-18 14:30 47.311739 -118.742829 79 7541ft 124kts
10-Aug-18 14:31 47.319938 -118.692482 79 7587ft 125kts
10-Aug-18 14:32 47.330159 -118.642259 74 7528ft 131kts
10-Aug-18 14:33 47.337400 -118.591163 82 7529ft 123kts
10-Aug-18 14:34 47.343323 -118.542485 83 7525ft 123kts
10-Aug-18 14:35 47.347354 -118.490164 83 7423ft 129kts
10-Aug-18 14:36 47.356523 -118.441261 80 7495ft 119kts
10-Aug-18 14:37 47.364729 -118.395016 85 7448ft 122kts
10-Aug-18 14:38 47.372620 -118.344756 79 7431ft 126kts
10-Aug-18 14:39 47.382916 -118.296478 77 7528ft 122kts
10-Aug-18 14:40 47.392499 -118.248652 79 7643ft 118kts
10-Aug-18 14:41 47.401412 -118.199632 64 7649ft 126kts
10-Aug-18 14:42 47.416442 -118.152249 72 7555ft 127kts
10-Aug-18 14:43 47.427799 -118.104766 79 7563ft 123kts
10-Aug-18 14:44 47.440422 -118.056984 70 7576ft 122kts
10-Aug-18 14:45 47.453844 -118.011737 70 7672ft 118kts
10-Aug-18 14:46 47.471533 -117.966373 69 7594ft 127kts
10-Aug-18 14:47 47.485794 -117.918613 72 7541ft 124kts
10-Aug-18 14:48 47.496980 -117.869902 78 7542ft 124kts
10-Aug-18 14:49 47.508284 -117.821780 71 7537ft 120kts
10-Aug-18 14:50 47.516724 -117.777805 106 7572ft 106kts
10-Aug-18 14:51 47.500704 -117.737941 123 7005ft 120kts
10-Aug-18 14:52 47.483568 -117.694875 112 6493ft 130kts
10-Aug-18 14:53 47.480203 -117.642371 93 6081ft 129kts
10-Aug-18 14:54 47.482579 -117.593322 60 6137ft 120kts
10-Aug-18 14:55 47.509414 -117.559134 38 6094ft 129kts
10-Aug-18 14:56 47.539160 -117.528803 37 6036ft 128kts
10-Aug-18 14:57 47.568674 -117.499410 35 6037ft 127kts
10-Aug-18 14:58 47.597386 -117.469546 43 6039ft 120kts
10-Aug-18 14:59 47.626392 -117.447364 56 6124ft 116kts
10-Aug-18 15:00 47.646119 -117.405192 66 5974ft 126kts
10-Aug-18 15:01 47.656022 -117.360449 73 5313ft 101kts
10-Aug-18 15:02 47.665459 -117.322515 70 4413ft 95kts
10-Aug-18 15:03 47.677461 -117.290177 53 3587ft 80kts
10-Aug-18 15:04 47.701405 -117.305024 310 3485ft 118kts
10-Aug-18 15:05 47.687161 -117.337991 139 2890ft 84kts
10-Aug-18 15:06 47.674227 -117.311544 68 2929ft 89kts
10-Aug-18 15:07 47.688903 -117.288471 339 2677ft 83kts
10-Aug-18 15:08 47.690112 -117.309011 232 2216ft 61kts
10-Aug-18 15:09 47.683533 -117.322336 215 1956ft 6kts
10-Aug-18 15:10 47.682655 -117.321869 135 1956ft 6kts
10-Aug-18 15:11 47.681291 -117.320438 145 1956ft 5kts
10-Aug-18 15:12 47.680813 -117.320030 155 1956ft 0kts
10-Aug-18 15:13 47.680812 -117.320030 155 1956ft 0kts
10-Aug-18 15:14 47.680812 -117.320030 155 1956ft 0kts
10-Aug-18 15:15 47.680812 -117.320030 155 1956ft 0kts
10-Aug-18 15:16 47.680812 -117.320030 155 1956ft 0kts
10-Aug-18 15:17 47.680812 -117.320030 155 1956ft 0kts
10-Aug-18 15:18 47.680812 -117.320030 155 1956ft 0kts
10-Aug-18 15:19 47.680812 -117.320030 155 1956ft 0kts

Navigation Log

Ident Type
Flight plan parsing failed, navigation log unavailable